createdAt,value
2017-08-28T00:02:14.194Z,18.60
2017-08-28T00:04:41.830Z,18.10
2017-08-28T00:07:09.372Z,18.53
2017-08-28T00:09:37.666Z,16.90
2017-08-28T00:12:05.251Z,18.70
2017-08-28T00:14:32.784Z,17.50
2017-08-28T00:17:00.326Z,17.93
2017-08-28T00:19:27.891Z,20.20
2017-08-28T00:21:55.428Z,19.37
2017-08-28T00:24:22.949Z,17.57
2017-08-28T00:26:50.523Z,19.33
2017-08-28T00:29:18.107Z,18.20
2017-08-28T00:31:45.639Z,16.50
2017-08-28T00:34:13.195Z,17.40
2017-08-28T00:36:40.724Z,17.00
2017-08-28T00:39:08.267Z,17.93
2017-08-28T00:41:35.831Z,16.07
2017-08-28T00:44:03.394Z,18.70
2017-08-28T00:46:30.955Z,17.70
2017-08-28T00:51:32.480Z,17.40
2017-08-28T00:54:00.032Z,19.07
2017-08-28T00:56:27.558Z,18.00
2017-08-28T00:58:55.142Z,17.50
2017-08-28T01:01:22.701Z,19.50
2017-08-28T01:03:50.233Z,17.87
2017-08-28T01:06:17.775Z,18.90
2017-08-28T01:08:45.336Z,20.87
2017-08-28T01:11:12.857Z,20.43
2017-08-28T01:13:40.383Z,17.40
2017-08-28T01:16:07.941Z,19.67
2017-08-28T01:18:35.471Z,18.80
2017-08-28T01:21:03.819Z,18.27
2017-08-28T01:23:31.364Z,18.93
2017-08-28T01:25:58.892Z,18.73
2017-08-28T01:28:26.417Z,19.50
2017-08-28T01:30:53.992Z,19.97
2017-08-28T01:33:21.530Z,20.97
2017-08-28T01:35:49.056Z,18.47
2017-08-28T01:38:16.618Z,18.60
2017-08-28T01:40:44.164Z,19.23
2017-08-28T01:43:11.721Z,19.27
2017-08-28T01:45:39.288Z,18.77
2017-08-28T01:48:06.839Z,18.10
2017-08-28T01:50:34.402Z,20.30
2017-08-28T01:53:01.963Z,17.60
2017-08-28T01:55:29.521Z,17.80
2017-08-28T01:57:57.280Z,18.03
2017-08-28T02:00:24.879Z,17.50
2017-08-28T02:02:52.409Z,17.70
2017-08-28T02:05:19.952Z,17.53
2017-08-28T02:07:47.611Z,17.07
2017-08-28T02:10:15.185Z,16.63
2017-08-28T02:12:42.712Z,17.10
2017-08-28T02:15:10.291Z,17.20
2017-08-28T02:17:37.825Z,17.37
2017-08-28T02:20:05.377Z,18.17
2017-08-28T02:22:32.941Z,18.00
2017-08-28T02:25:00.467Z,17.47
2017-08-28T02:27:28.002Z,19.00
2017-08-28T02:29:55.582Z,18.30
2017-08-28T02:32:23.122Z,18.57
2017-08-28T02:34:50.662Z,21.20
2017-08-28T02:37:18.221Z,17.53
2017-08-28T02:39:45.782Z,18.07
2017-08-28T02:42:13.331Z,19.80
2017-08-28T02:44:40.897Z,18.97
2017-08-28T02:47:08.448Z,19.10
2017-08-28T02:49:36.043Z,19.00
2017-08-28T02:52:03.614Z,21.00
2017-08-28T02:54:31.136Z,22.03
2017-08-28T02:56:58.684Z,24.67
2017-08-28T02:59:26.278Z,21.10
2017-08-28T03:01:53.822Z,23.57
2017-08-28T03:04:21.344Z,23.57
2017-08-28T03:06:48.905Z,24.27
2017-08-28T03:09:16.428Z,25.83
2017-08-28T03:11:43.949Z,23.50
2017-08-28T03:14:11.522Z,23.43
2017-08-28T03:16:39.065Z,23.10
2017-08-28T03:19:06.603Z,24.40
2017-08-28T03:21:34.929Z,23.80
2017-08-28T03:24:02.466Z,23.20
2017-08-28T03:26:30.023Z,24.10
2017-08-28T03:28:57.584Z,23.13
2017-08-28T03:31:25.119Z,23.43
2017-08-28T03:33:52.682Z,22.73
2017-08-28T03:36:21.028Z,24.20
2017-08-28T03:38:48.576Z,23.70
2017-08-28T03:41:16.112Z,22.80
2017-08-28T03:43:43.668Z,22.77
2017-08-28T03:46:11.232Z,21.90
2017-08-28T03:48:38.755Z,24.80
2017-08-28T03:51:06.316Z,27.63
2017-08-28T03:53:33.864Z,24.43
2017-08-28T03:56:01.395Z,23.73
2017-08-28T03:58:28.965Z,23.63
2017-08-28T04:00:56.497Z,24.20
2017-08-28T04:03:24.027Z,23.43
2017-08-28T04:05:51.595Z,22.13
2017-08-28T04:08:19.147Z,23.10
2017-08-28T04:10:46.762Z,22.70
2017-08-28T04:13:14.338Z,21.70
2017-08-28T04:15:41.899Z,21.60
2017-08-28T04:18:09.466Z,22.47
2017-08-28T04:20:37.024Z,23.63
2017-08-28T04:23:04.570Z,22.83
2017-08-28T04:25:32.102Z,22.67
2017-08-28T04:27:59.657Z,24.07
2017-08-28T04:30:27.258Z,24.17
2017-08-28T04:32:54.776Z,23.07
2017-08-28T04:35:22.351Z,22.80
2017-08-28T04:37:49.899Z,21.37
2017-08-28T04:40:17.433Z,21.70
2017-08-28T04:42:44.998Z,22.53
2017-08-28T04:45:12.535Z,22.63
2017-08-28T04:47:40.072Z,21.90
2017-08-28T04:50:07.632Z,23.40
2017-08-28T04:52:35.175Z,22.90
2017-08-28T04:55:02.714Z,22.90
2017-08-28T04:57:30.274Z,22.50
2017-08-28T04:59:57.804Z,23.47
2017-08-28T05:02:25.351Z,21.80
2017-08-28T05:04:52.915Z,21.90
2017-08-28T05:07:20.473Z,22.70
2017-08-28T05:09:48.015Z,21.30
2017-08-28T05:12:15.615Z,21.47
2017-08-28T05:14:43.274Z,21.90
2017-08-28T05:17:11.506Z,20.10
2017-08-28T05:19:39.196Z,21.53
2017-08-28T05:22:06.774Z,21.43
2017-08-28T05:24:34.357Z,20.70
2017-08-28T05:27:01.920Z,20.50
2017-08-28T05:29:29.543Z,21.17
2017-08-28T05:31:57.091Z,19.27
2017-08-28T05:34:24.645Z,20.37
2017-08-28T05:36:53.295Z,19.63
2017-08-28T05:39:20.940Z,19.50
2017-08-28T05:41:48.504Z,19.37
2017-08-28T05:44:16.069Z,21.27
2017-08-28T05:46:43.622Z,21.67
2017-08-28T05:49:11.196Z,21.03
2017-08-28T05:51:38.770Z,19.73
2017-08-28T05:54:06.374Z,20.60
2017-08-28T05:56:33.944Z,22.30
2017-08-28T05:59:01.528Z,21.60
2017-08-28T06:01:29.110Z,19.53
2017-08-28T06:03:56.728Z,21.50
2017-08-28T06:06:28.370Z,20.27
2017-08-28T06:08:56.135Z,20.70
2017-08-28T06:11:23.692Z,20.10
2017-08-28T06:13:51.243Z,18.77
2017-08-28T06:16:18.814Z,19.27
2017-08-28T06:18:46.355Z,20.47
2017-08-28T06:21:13.902Z,19.10
2017-08-28T06:23:41.480Z,20.57
2017-08-28T06:26:09.051Z,20.73
2017-08-28T06:28:36.603Z,21.70
2017-08-28T06:31:04.323Z,21.63
2017-08-28T06:33:31.864Z,21.87
2017-08-28T06:35:59.397Z,20.07
2017-08-28T06:38:26.951Z,20.30
2017-08-28T06:40:54.500Z,18.70
2017-08-28T06:45:55.147Z,19.60
2017-08-28T06:48:22.698Z,19.83
2017-08-28T06:50:50.248Z,21.60
2017-08-28T06:53:17.818Z,21.37
2017-08-28T06:55:45.354Z,21.90
2017-08-28T06:58:12.904Z,21.37
2017-08-28T07:00:40.522Z,23.70
2017-08-28T07:03:08.073Z,21.37
2017-08-28T07:05:35.742Z,22.50
2017-08-28T07:08:03.349Z,23.10
2017-08-28T07:10:30.946Z,23.73
2017-08-28T07:12:58.534Z,24.03
2017-08-28T07:15:26.177Z,24.30
2017-08-28T07:17:53.739Z,23.07
2017-08-28T07:20:21.302Z,22.13
2017-08-28T07:22:48.844Z,25.47
2017-08-28T07:25:16.436Z,24.93
2017-08-28T07:27:43.979Z,24.77
2017-08-28T07:30:11.543Z,26.13
2017-08-28T07:32:39.119Z,25.77
2017-08-28T07:35:06.658Z,26.77
2017-08-28T07:37:34.223Z,27.53
2017-08-28T07:40:01.759Z,29.70
2017-08-28T07:42:29.295Z,31.77
2017-08-28T07:44:56.837Z,33.13
2017-08-28T07:47:24.425Z,30.80
2017-08-28T07:49:51.966Z,31.53
2017-08-28T07:52:19.488Z,29.47
2017-08-28T07:54:47.079Z,29.83
2017-08-28T07:57:14.634Z,27.77
2017-08-28T07:59:42.192Z,27.53
2017-08-28T08:02:09.756Z,30.00
2017-08-28T08:04:37.328Z,31.67
2017-08-28T08:07:04.879Z,32.30
2017-08-28T08:09:32.451Z,30.37
2017-08-28T08:11:59.994Z,30.87
2017-08-28T08:14:27.544Z,29.37
2017-08-28T08:16:55.099Z,29.47
2017-08-28T08:19:22.640Z,28.30
2017-08-28T08:21:50.187Z,29.77
2017-08-28T08:24:17.772Z,27.27
2017-08-28T08:26:45.359Z,28.73
2017-08-28T08:29:12.924Z,29.50
2017-08-28T08:31:40.471Z,27.30
2017-08-28T08:34:13.791Z,27.33
2017-08-28T08:36:41.331Z,26.53
2017-08-28T08:39:08.859Z,29.70
2017-08-28T08:41:36.432Z,29.30
2017-08-28T08:44:04.004Z,27.10
2017-08-28T08:46:31.539Z,26.90
2017-08-28T08:48:59.099Z,26.40
2017-08-28T08:51:26.633Z,27.70
2017-08-28T08:53:54.183Z,26.10
2017-08-28T08:56:21.748Z,26.00
2017-08-28T08:58:49.271Z,24.13
2017-08-28T09:01:16.839Z,25.83
2017-08-28T09:03:44.406Z,22.50
2017-08-28T09:06:11.932Z,22.13
2017-08-28T09:08:39.471Z,21.80
2017-08-28T09:11:07.030Z,23.20
2017-08-28T09:13:34.630Z,22.17
2017-08-28T09:16:02.160Z,23.20
2017-08-28T09:18:29.692Z,23.87
2017-08-28T09:20:57.257Z,21.73
2017-08-28T09:23:24.788Z,21.13
2017-08-28T09:25:52.312Z,21.50
2017-08-28T09:28:19.868Z,20.93
2017-08-28T09:30:47.429Z,18.03
2017-08-28T09:33:14.956Z,18.67
2017-08-28T09:35:42.479Z,20.47
2017-08-28T09:38:10.046Z,19.13
2017-08-28T09:40:37.584Z,17.83
2017-08-28T09:43:05.108Z,19.10
2017-08-28T09:45:32.656Z,17.27
2017-08-28T09:48:00.180Z,19.00
2017-08-28T09:50:27.719Z,18.33
2017-08-28T09:52:55.306Z,17.80
2017-08-28T09:55:22.843Z,17.90
2017-08-28T09:57:50.383Z,17.90
2017-08-28T10:00:17.934Z,17.00
2017-08-28T10:02:45.499Z,17.40
2017-08-28T10:05:13.028Z,19.40
2017-08-28T10:07:40.595Z,17.97
2017-08-28T10:10:08.116Z,16.90
2017-08-28T10:12:35.661Z,16.47
2017-08-28T10:15:03.221Z,16.83
2017-08-28T10:17:30.758Z,16.77
2017-08-28T10:19:58.290Z,18.27
2017-08-28T10:22:25.869Z,16.83
2017-08-28T10:24:53.402Z,15.47
2017-08-28T10:27:20.442Z,15.53
2017-08-28T10:29:48.761Z,16.40
2017-08-28T10:32:16.294Z,17.57
2017-08-28T10:34:43.831Z,16.30
2017-08-28T10:37:11.379Z,17.67
2017-08-28T10:39:38.956Z,14.17
2017-08-28T10:42:07.255Z,17.37
2017-08-28T10:44:34.839Z,20.33
2017-08-28T10:47:02.379Z,17.67
2017-08-28T10:49:29.908Z,16.17
2017-08-28T10:51:57.480Z,18.00
2017-08-28T10:54:25.028Z,17.13
2017-08-28T10:56:52.587Z,16.17
2017-08-28T10:59:20.140Z,18.10
2017-08-28T11:01:47.665Z,13.40
2017-08-28T11:04:15.227Z,15.43
2017-08-28T11:06:43.533Z,14.23
2017-08-28T11:09:11.052Z,14.53
2017-08-28T11:11:38.621Z,16.73
2017-08-28T11:14:06.143Z,16.13
2017-08-28T11:16:33.664Z,44.17
2017-08-28T11:19:01.220Z,12.87
2017-08-28T11:21:28.763Z,15.10
2017-08-28T11:23:56.308Z,14.13
2017-08-28T11:26:23.878Z,15.50
2017-08-28T11:28:51.443Z,14.07
2017-08-28T11:31:18.983Z,15.10
2017-08-28T11:33:46.554Z,13.00
2017-08-28T11:36:14.083Z,14.50
2017-08-28T11:38:41.608Z,14.37
2017-08-28T11:41:09.160Z,13.77
2017-08-28T11:43:36.694Z,13.50
2017-08-28T11:46:04.260Z,13.90
2017-08-28T11:48:31.812Z,14.37
2017-08-28T11:50:59.394Z,15.10
2017-08-28T11:53:26.983Z,12.97
2017-08-28T11:55:54.544Z,12.33
2017-08-28T11:58:22.127Z,12.93
2017-08-28T12:00:49.663Z,14.77
2017-08-28T12:03:17.274Z,15.80
2017-08-28T12:05:44.801Z,16.40
2017-08-28T12:08:13.036Z,15.20
2017-08-28T12:10:40.901Z,15.50
2017-08-28T12:13:09.432Z,12.30
2017-08-28T12:15:37.448Z,14.40
2017-08-28T12:18:05.303Z,12.67
2017-08-28T12:20:32.847Z,11.87
2017-08-28T12:23:00.372Z,11.20
2017-08-28T12:25:27.967Z,10.80
2017-08-28T12:27:55.488Z,10.33
2017-08-28T12:30:23.018Z,14.47
2017-08-28T12:32:50.584Z,11.27
2017-08-28T12:35:18.115Z,25.77
2017-08-28T12:37:45.663Z,12.17
2017-08-28T12:40:13.239Z,14.00
2017-08-28T12:42:40.770Z,13.60
2017-08-28T12:45:08.335Z,14.03
2017-08-28T12:47:36.018Z,12.67
2017-08-28T12:50:03.609Z,11.00
2017-08-28T12:52:31.132Z,13.10
2017-08-28T12:54:58.649Z,12.17
2017-08-28T12:57:26.230Z,13.23
2017-08-28T12:59:53.873Z,13.77
2017-08-28T13:02:21.596Z,12.90
2017-08-28T13:04:49.139Z,27.90
2017-08-28T13:07:16.679Z,11.33
2017-08-28T13:09:44.239Z,14.27
2017-08-28T13:12:11.778Z,14.07
2017-08-28T13:14:39.308Z,10.90
2017-08-28T13:17:06.870Z,37.07
2017-08-28T13:19:34.418Z,13.17
2017-08-28T13:22:01.948Z,12.90
2017-08-28T13:24:29.512Z,9.97
2017-08-28T13:26:57.091Z,11.33
2017-08-28T13:29:24.636Z,10.70
2017-08-28T13:31:52.214Z,11.90
2017-08-28T13:34:19.754Z,11.37
2017-08-28T13:36:47.295Z,11.77
2017-08-28T13:39:14.896Z,11.37
2017-08-28T13:41:42.437Z,9.93
2017-08-28T13:44:10.016Z,10.60
2017-08-28T13:46:37.580Z,9.57
2017-08-28T13:49:05.112Z,10.07
2017-08-28T13:51:32.663Z,8.20
2017-08-28T13:54:00.246Z,31.33
2017-08-28T13:56:27.804Z,11.27
2017-08-28T13:58:56.913Z,10.03
2017-08-28T14:01:24.751Z,8.70
2017-08-28T14:03:52.311Z,8.37
2017-08-28T14:06:19.835Z,9.83
2017-08-28T14:08:47.397Z,9.07
2017-08-28T14:11:14.916Z,9.40
2017-08-28T14:13:42.494Z,10.00
2017-08-28T14:16:10.068Z,38.17
2017-08-28T14:18:37.611Z,8.87
2017-08-28T14:21:05.155Z,8.33
2017-08-28T14:23:32.723Z,8.27
2017-08-28T14:26:00.259Z,9.50
2017-08-28T14:28:27.788Z,9.87
2017-08-28T14:30:55.431Z,8.20
2017-08-28T14:33:22.952Z,7.57
2017-08-28T14:35:50.518Z,8.37
2017-08-28T14:38:18.203Z,8.40
2017-08-28T14:40:45.740Z,7.30
2017-08-28T14:43:13.264Z,8.20
2017-08-28T14:45:40.824Z,7.13
2017-08-28T14:48:08.342Z,8.37
2017-08-28T14:50:35.882Z,7.80
2017-08-28T14:53:03.457Z,6.67
2017-08-28T14:55:31.021Z,7.40
2017-08-28T14:57:58.577Z,8.57
2017-08-28T15:00:26.106Z,8.10
2017-08-28T15:02:53.625Z,7.30
2017-08-28T15:05:21.317Z,8.10
2017-08-28T15:07:48.913Z,8.13
2017-08-28T15:10:16.446Z,6.17
2017-08-28T15:12:43.979Z,6.03
2017-08-28T15:15:11.524Z,7.60
2017-08-28T15:17:39.075Z,6.53
2017-08-28T15:20:06.644Z,6.37
2017-08-28T15:22:34.240Z,7.87
2017-08-28T15:25:01.787Z,7.60
2017-08-28T15:27:29.351Z,6.63
2017-08-28T15:29:56.889Z,9.90
2017-08-28T15:32:24.420Z,11.73
2017-08-28T15:34:51.987Z,7.40
2017-08-28T15:37:19.581Z,11.33
2017-08-28T15:39:47.111Z,24.47
2017-08-28T15:42:14.690Z,10.67
2017-08-28T15:44:42.276Z,9.50
2017-08-28T15:47:09.834Z,7.40
2017-08-28T15:49:37.444Z,8.67
2017-08-28T15:52:04.991Z,7.50
2017-08-28T15:54:32.707Z,13.00
2017-08-28T15:57:00.282Z,12.60
2017-08-28T15:59:27.826Z,22.20
2017-08-28T16:01:55.407Z,23.20
2017-08-28T16:04:23.303Z,20.60
2017-08-28T16:06:51.460Z,11.03
2017-08-28T16:09:19.024Z,8.97
2017-08-28T16:11:46.610Z,12.67
2017-08-28T16:14:14.838Z,12.03
2017-08-28T16:16:42.428Z,14.00
2017-08-28T16:19:10.352Z,8.60
2017-08-28T16:21:37.903Z,8.90
2017-08-28T16:24:05.497Z,9.57
2017-08-28T16:26:33.075Z,7.00
2017-08-28T16:29:00.837Z,9.90
2017-08-28T16:31:28.404Z,14.13
2017-08-28T16:33:56.152Z,9.20
2017-08-28T16:36:23.720Z,8.60
2017-08-28T16:38:51.600Z,8.40
2017-08-28T16:41:19.315Z,10.93
2017-08-28T16:43:46.899Z,7.30
2017-08-28T16:46:14.473Z,9.57
2017-08-28T16:48:42.085Z,15.27
2017-08-28T16:51:09.625Z,12.50
2017-08-28T16:53:37.158Z,7.83
2017-08-28T16:56:05.698Z,6.67
2017-08-28T16:58:33.623Z,27.93
2017-08-28T17:01:01.451Z,10.90
2017-08-28T17:03:29.025Z,17.87
2017-08-28T17:05:56.579Z,8.43
2017-08-28T17:08:24.122Z,7.97
2017-08-28T17:10:51.713Z,11.67
2017-08-28T17:13:19.305Z,13.20
2017-08-28T17:15:47.312Z,11.87
2017-08-28T17:18:22.420Z,12.03
2017-08-28T17:21:01.801Z,9.60
2017-08-28T17:23:38.725Z,8.15
2017-08-28T17:26:06.375Z,9.03
2017-08-28T17:28:34.339Z,8.50
2017-08-28T17:31:06.403Z,9.07
2017-08-28T17:33:34.917Z,19.17
2017-08-28T17:36:12.646Z,17.10
2017-08-28T17:38:42.156Z,24.50
2017-08-28T17:41:09.933Z,13.00
2017-08-28T17:43:38.239Z,10.40
2017-08-28T17:46:07.019Z,10.50
2017-08-28T17:48:34.933Z,12.63
2017-08-28T17:51:09.482Z,13.93
2017-08-28T17:53:43.471Z,9.67
2017-08-28T17:56:18.632Z,13.90
2017-08-28T17:58:49.267Z,21.57
2017-08-28T18:01:17.770Z,21.33
2017-08-28T18:03:45.809Z,25.10
2017-08-28T18:06:13.388Z,14.80
2017-08-28T18:08:40.924Z,14.60
2017-08-28T18:11:08.518Z,13.23
2017-08-28T18:13:36.099Z,14.60
2017-08-28T18:16:03.684Z,12.97
2017-08-28T18:18:31.217Z,13.77
2017-08-28T18:20:58.813Z,19.63
2017-08-28T18:23:26.390Z,18.07
2017-08-28T18:25:53.935Z,16.27
2017-08-28T18:28:21.485Z,15.03
2017-08-28T18:30:49.112Z,13.50
2017-08-28T18:33:16.677Z,18.37
2017-08-28T18:35:44.217Z,18.47
2017-08-28T18:38:11.887Z,18.30
2017-08-28T18:40:40.185Z,11.33
2017-08-28T18:43:07.779Z,15.90
2017-08-28T18:45:35.305Z,12.63
2017-08-28T18:48:02.843Z,12.23
2017-08-28T18:50:30.441Z,11.30
2017-08-28T18:52:57.980Z,10.07
2017-08-28T18:55:25.547Z,9.33
2017-08-28T18:57:53.069Z,9.50
2017-08-28T19:00:20.619Z,10.80
2017-08-28T19:02:48.198Z,12.43
2017-08-28T19:05:15.758Z,9.33
2017-08-28T19:07:43.339Z,10.27
2017-08-28T19:10:10.909Z,11.27
2017-08-28T19:12:38.443Z,9.40
2017-08-28T19:15:05.963Z,9.60
2017-08-28T19:17:33.525Z,9.70
2017-08-28T19:20:01.107Z,10.90
2017-08-28T19:22:29.401Z,10.37
2017-08-28T19:24:56.995Z,10.63
2017-08-28T19:27:24.531Z,9.90
2017-08-28T19:29:52.060Z,10.93
2017-08-28T19:32:19.639Z,9.80
2017-08-28T19:35:06.311Z,13.43
2017-08-28T19:37:33.903Z,14.67
2017-08-28T19:40:01.522Z,20.93
2017-08-28T19:42:29.137Z,11.30
2017-08-28T19:44:56.699Z,11.10
2017-08-28T19:47:24.219Z,14.32
2017-08-28T19:49:51.839Z,14.40
2017-08-28T19:52:19.385Z,16.13
2017-08-28T19:54:47.079Z,12.57
2017-08-28T19:57:17.127Z,12.37
2017-08-28T19:59:45.963Z,13.30
2017-08-28T20:02:13.575Z,15.67
2017-08-28T20:04:41.127Z,13.00
2017-08-28T20:07:09.272Z,14.03
2017-08-28T20:09:37.978Z,13.27
2017-08-28T20:12:05.547Z,11.30
2017-08-28T20:14:33.085Z,16.13
2017-08-28T20:17:00.626Z,11.70
2017-08-28T20:19:28.160Z,14.70
2017-08-28T20:21:55.750Z,14.30
2017-08-28T20:24:24.151Z,11.13
2017-08-28T20:26:51.816Z,13.97
2017-08-28T20:29:19.391Z,14.30
2017-08-28T20:31:49.269Z,23.57
2017-08-28T20:34:16.901Z,18.87
2017-08-28T20:36:46.081Z,29.37
2017-08-28T20:39:18.047Z,16.83
2017-08-28T20:41:45.901Z,14.70
2017-08-28T20:44:14.467Z,22.07
2017-08-28T20:46:48.925Z,13.00
2017-08-28T20:49:16.915Z,15.90
2017-08-28T20:51:45.087Z,15.07
2017-08-28T20:54:19.130Z,15.93
2017-08-28T20:56:55.401Z,15.27
2017-08-28T20:59:24.423Z,29.63
2017-08-28T21:01:52.031Z,18.70
2017-08-28T21:04:19.575Z,21.80
2017-08-28T21:06:47.128Z,16.70
2017-08-28T21:09:14.692Z,18.27
2017-08-28T21:11:42.814Z,16.20
2017-08-28T21:14:10.404Z,15.60
2017-08-28T21:16:37.959Z,13.77
2017-08-28T21:19:05.572Z,15.37
2017-08-28T21:21:33.111Z,14.70
2017-08-28T21:24:00.688Z,16.13
2017-08-28T21:26:28.265Z,16.00
2017-08-28T21:28:57.032Z,18.33
2017-08-28T21:31:24.573Z,15.37
2017-08-28T21:33:52.096Z,17.80
2017-08-28T21:36:19.652Z,15.37
2017-08-28T21:38:47.185Z,18.80
2017-08-28T21:41:14.739Z,16.87
2017-08-28T21:43:42.283Z,18.53
2017-08-28T21:46:09.808Z,16.90
2017-08-28T21:48:38.168Z,17.10
2017-08-28T21:51:05.725Z,18.53
2017-08-28T21:53:33.290Z,17.33
2017-08-28T21:56:00.856Z,18.60
2017-08-28T21:58:28.390Z,17.73
2017-08-28T22:00:55.989Z,17.30
2017-08-28T22:03:23.998Z,16.40
2017-08-28T22:05:51.539Z,18.23
2017-08-28T22:08:19.105Z,18.57
2017-08-28T22:10:47.543Z,19.10
2017-08-28T22:13:15.071Z,19.17
2017-08-28T22:15:42.665Z,19.50
2017-08-28T22:18:10.227Z,19.90
2017-08-28T22:20:37.760Z,21.80
2017-08-28T22:23:05.292Z,20.77
2017-08-28T22:25:32.863Z,19.40
2017-08-28T22:28:00.399Z,20.37
2017-08-28T22:30:27.938Z,21.13
2017-08-28T22:32:55.484Z,22.93
2017-08-28T22:35:23.843Z,22.43
2017-08-28T22:37:51.386Z,23.60
2017-08-28T22:40:18.945Z,22.10
2017-08-28T22:42:46.503Z,23.27
2017-08-28T22:45:14.024Z,23.17
2017-08-28T22:47:41.580Z,23.33
2017-08-28T22:50:09.114Z,23.50
2017-08-28T22:52:36.661Z,24.70
2017-08-28T22:55:04.234Z,23.90
2017-08-28T22:57:31.765Z,23.80
2017-08-28T22:59:59.305Z,25.27
2017-08-28T23:02:26.882Z,27.40
2017-08-28T23:04:55.308Z,25.70
2017-08-28T23:07:22.854Z,27.30
2017-08-28T23:09:50.415Z,25.73
2017-08-28T23:12:17.971Z,25.03
2017-08-28T23:14:45.519Z,24.57
2017-08-28T23:17:13.115Z,27.97
2017-08-28T23:19:40.655Z,25.70
2017-08-28T23:22:08.197Z,25.80
2017-08-28T23:24:35.776Z,25.43
2017-08-28T23:27:04.073Z,25.47
2017-08-28T23:29:31.616Z,25.70
2017-08-28T23:31:59.170Z,28.90
2017-08-28T23:34:26.716Z,27.13
2017-08-28T23:36:54.302Z,26.80
2017-08-28T23:39:21.836Z,26.87
2017-08-28T23:41:49.389Z,26.60
2017-08-28T23:44:16.956Z,31.70
2017-08-28T23:46:44.484Z,29.13
2017-08-28T23:49:12.009Z,27.97
2017-08-28T23:51:39.578Z,27.53
2017-08-28T23:54:07.130Z,27.80
2017-08-28T23:56:34.679Z,29.33
2017-08-28T23:59:02.236Z,28.80
